sensor_id;sensor_type;location;lat;lon;timestamp;P1;durP1;ratioP1;P2;durP2;ratioP2
53056;SDS011;38940;50.096;4.012;2023-01-10T00:01:49;440.10;;;403.73;;
53056;SDS011;38940;50.096;4.012;2023-01-10T00:04:15;451.80;;;413.25;;
53056;SDS011;38940;50.096;4.012;2023-01-10T00:06:41;439.05;;;402.63;;
53056;SDS011;38940;50.096;4.012;2023-01-10T00:09:08;431.27;;;395.27;;
53056;SDS011;38940;50.096;4.012;2023-01-10T00:11:34;435.30;;;399.15;;
53056;SDS011;38940;50.096;4.012;2023-01-10T00:14:19;430.45;;;394.75;;
53056;SDS011;38940;50.096;4.012;2023-01-10T00:16:45;445.98;;;408.17;;
53056;SDS011;38940;50.096;4.012;2023-01-10T00:19:11;440.55;;;404.30;;
53056;SDS011;38940;50.096;4.012;2023-01-10T00:21:37;436.58;;;399.58;;
53056;SDS011;38940;50.096;4.012;2023-01-10T00:24:03;438.88;;;400.83;;
53056;SDS011;38940;50.096;4.012;2023-01-10T00:26:41;448.10;;;410.75;;
53056;SDS011;38940;50.096;4.012;2023-01-10T00:29:07;452.98;;;414.95;;
53056;SDS011;38940;50.096;4.012;2023-01-10T00:31:33;442.25;;;405.00;;
53056;SDS011;38940;50.096;4.012;2023-01-10T00:33:59;436.55;;;399.30;;
53056;SDS011;38940;50.096;4.012;2023-01-10T00:36:25;447.90;;;410.35;;
53056;SDS011;38940;50.096;4.012;2023-01-10T00:38:51;441.67;;;405.13;;
53056;SDS011;38940;50.096;4.012;2023-01-10T00:41:17;438.15;;;401.23;;
53056;SDS011;38940;50.096;4.012;2023-01-10T00:44:01;453.40;;;414.50;;
53056;SDS011;38940;50.096;4.012;2023-01-10T00:46:27;456.50;;;417.50;;
53056;SDS011;38940;50.096;4.012;2023-01-10T00:48:54;459.23;;;421.02;;
53056;SDS011;38940;50.096;4.012;2023-01-10T00:51:21;453.02;;;414.85;;
53056;SDS011;38940;50.096;4.012;2023-01-10T00:53:47;458.77;;;421.30;;
53056;SDS011;38940;50.096;4.012;2023-01-10T00:56:13;455.33;;;418.80;;
53056;SDS011;38940;50.096;4.012;2023-01-10T00:58:39;442.02;;;405.13;;
53056;SDS011;38940;50.096;4.012;2023-01-10T01:01:05;465.38;;;426.90;;
53056;SDS011;38940;50.096;4.012;2023-01-10T01:03:31;450.80;;;413.83;;
53056;SDS011;38940;50.096;4.012;2023-01-10T01:06:02;438.30;;;401.70;;
53056;SDS011;38940;50.096;4.012;2023-01-10T01:08:28;436.65;;;400.42;;
53056;SDS011;38940;50.096;4.012;2023-01-10T01:10:54;434.05;;;397.30;;
53056;SDS011;38940;50.096;4.012;2023-01-10T01:13:20;447.83;;;409.42;;
53056;SDS011;38940;50.096;4.012;2023-01-10T01:15:46;457.90;;;418.98;;
53056;SDS011;38940;50.096;4.012;2023-01-10T01:18:15;428.38;;;391.52;;
53056;SDS011;38940;50.096;4.012;2023-01-10T01:20:41;439.17;;;401.83;;
53056;SDS011;38940;50.096;4.012;2023-01-10T01:23:07;441.35;;;404.00;;
53056;SDS011;38940;50.096;4.012;2023-01-10T01:25:33;447.63;;;409.77;;
53056;SDS011;38940;50.096;4.012;2023-01-10T01:27:59;451.08;;;413.42;;
53056;SDS011;38940;50.096;4.012;2023-01-10T01:30:25;443.90;;;406.85;;
53056;SDS011;38940;50.096;4.012;2023-01-10T01:32:52;457.55;;;419.25;;
53056;SDS011;38940;50.096;4.012;2023-01-10T01:35:18;449.92;;;411.08;;
53056;SDS011;38940;50.096;4.012;2023-01-10T01:37:44;456.08;;;417.75;;
53056;SDS011;38940;50.096;4.012;2023-01-10T01:40:14;450.75;;;411.77;;
53056;SDS011;38940;50.096;4.012;2023-01-10T01:42:40;446.83;;;409.52;;
53056;SDS011;38940;50.096;4.012;2023-01-10T01:50:02;454.85;;;416.42;;
53056;SDS011;38940;50.096;4.012;2023-01-10T01:52:29;431.52;;;395.35;;
53056;SDS011;38940;50.096;4.012;2023-01-10T01:54:58;442.58;;;405.73;;
53056;SDS011;38940;50.096;4.012;2023-01-10T01:57:27;447.42;;;409.77;;
53056;SDS011;38940;50.096;4.012;2023-01-10T01:59:54;435.70;;;398.73;;
53056;SDS011;38940;50.096;4.012;2023-01-10T02:02:21;439.95;;;404.17;;
53056;SDS011;38940;50.096;4.012;2023-01-10T02:07:17;444.50;;;407.40;;
53056;SDS011;38940;50.096;4.012;2023-01-10T02:12:21;451.95;;;412.83;;
53056;SDS011;38940;50.096;4.012;2023-01-10T02:14:49;438.05;;;400.25;;
53056;SDS011;38940;50.096;4.012;2023-01-10T02:17:16;444.08;;;406.10;;
53056;SDS011;38940;50.096;4.012;2023-01-10T02:35:33;463.42;;;425.30;;
53056;SDS011;38940;50.096;4.012;2023-01-10T02:41:04;445.02;;;407.92;;
53056;SDS011;38940;50.096;4.012;2023-01-10T02:43:34;463.73;;;424.33;;
53056;SDS011;38940;50.096;4.012;2023-01-10T02:46:10;452.02;;;414.38;;
53056;SDS011;38940;50.096;4.012;2023-01-10T02:48:38;443.17;;;405.95;;
53056;SDS011;38940;50.096;4.012;2023-01-10T02:53:36;433.40;;;396.63;;
53056;SDS011;38940;50.096;4.012;2023-01-10T02:59:05;443.95;;;407.45;;
53056;SDS011;38940;50.096;4.012;2023-01-10T03:11:34;442.05;;;403.98;;
53056;SDS011;38940;50.096;4.012;2023-01-10T03:17:03;425.98;;;390.83;;
53056;SDS011;38940;50.096;4.012;2023-01-10T03:19:32;445.15;;;407.73;;
53056;SDS011;38940;50.096;4.012;2023-01-10T03:21:59;447.02;;;409.65;;
53056;SDS011;38940;50.096;4.012;2023-01-10T03:24:34;436.55;;;399.88;;
53056;SDS011;38940;50.096;4.012;2023-01-10T03:29:57;438.40;;;401.30;;
53056;SDS011;38940;50.096;4.012;2023-01-10T03:32:25;440.65;;;403.23;;
53056;SDS011;38940;50.096;4.012;2023-01-10T03:34:53;437.85;;;401.38;;
53056;SDS011;38940;50.096;4.012;2023-01-10T03:37:25;436.08;;;398.77;;
53056;SDS011;38940;50.096;4.012;2023-01-10T03:39:59;455.67;;;417.38;;
53056;SDS011;38940;50.096;4.012;2023-01-10T03:45:42;436.95;;;401.02;;
53056;SDS011;38940;50.096;4.012;2023-01-10T03:48:09;456.92;;;418.60;;
53056;SDS011;38940;50.096;4.012;2023-01-10T03:50:36;442.45;;;406.00;;
53056;SDS011;38940;50.096;4.012;2023-01-10T03:56:06;431.15;;;395.30;;
53056;SDS011;38940;50.096;4.012;2023-01-10T03:58:32;444.52;;;407.73;;
53056;SDS011;38940;50.096;4.012;2023-01-10T04:00:58;449.92;;;411.90;;
53056;SDS011;38940;50.096;4.012;2023-01-10T04:03:24;443.88;;;406.63;;
53056;SDS011;38940;50.096;4.012;2023-01-10T04:05:50;447.35;;;409.85;;
53056;SDS011;38940;50.096;4.012;2023-01-10T04:08:16;459.75;;;421.08;;
53056;SDS011;38940;50.096;4.012;2023-01-10T04:10:42;439.58;;;402.00;;
53056;SDS011;38940;50.096;4.012;2023-01-10T04:13:08;461.70;;;422.85;;
53056;SDS011;38940;50.096;4.012;2023-01-10T04:15:34;474.35;;;434.63;;
53056;SDS011;38940;50.096;4.012;2023-01-10T04:18:00;460.85;;;422.15;;
53056;SDS011;38940;50.096;4.012;2023-01-10T04:20:26;453.08;;;414.45;;
53056;SDS011;38940;50.096;4.012;2023-01-10T04:22:52;453.85;;;416.17;;
53056;SDS011;38940;50.096;4.012;2023-01-10T04:25:19;446.05;;;408.33;;
53056;SDS011;38940;50.096;4.012;2023-01-10T04:27:45;437.77;;;400.67;;
53056;SDS011;38940;50.096;4.012;2023-01-10T04:30:13;450.38;;;411.60;;
53056;SDS011;38940;50.096;4.012;2023-01-10T04:32:39;463.20;;;422.27;;
53056;SDS011;38940;50.096;4.012;2023-01-10T04:35:05;438.27;;;401.20;;
53056;SDS011;38940;50.096;4.012;2023-01-10T04:37:31;451.48;;;412.83;;
53056;SDS011;38940;50.096;4.012;2023-01-10T04:39:57;443.83;;;406.05;;
53056;SDS011;38940;50.096;4.012;2023-01-10T04:42:23;455.40;;;416.23;;
53056;SDS011;38940;50.096;4.012;2023-01-10T04:44:49;466.77;;;426.65;;
53056;SDS011;38940;50.096;4.012;2023-01-10T04:47:15;453.30;;;414.73;;
53056;SDS011;38940;50.096;4.012;2023-01-10T04:49:41;448.63;;;410.92;;
53056;SDS011;38940;50.096;4.012;2023-01-10T04:52:07;424.60;;;387.95;;
53056;SDS011;38940;50.096;4.012;2023-01-10T04:54:34;456.73;;;417.50;;
53056;SDS011;38940;50.096;4.012;2023-01-10T04:57:00;457.88;;;419.38;;
53056;SDS011;38940;50.096;4.012;2023-01-10T04:59:26;436.90;;;400.20;;
53056;SDS011;38940;50.096;4.012;2023-01-10T05:01:52;472.40;;;432.48;;
53056;SDS011;38940;50.096;4.012;2023-01-10T05:04:18;448.83;;;410.25;;
53056;SDS011;38940;50.096;4.012;2023-01-10T05:06:44;450.15;;;412.13;;
53056;SDS011;38940;50.096;4.012;2023-01-10T05:09:10;447.33;;;408.88;;
53056;SDS011;38940;50.096;4.012;2023-01-10T05:11:36;468.38;;;428.25;;
53056;SDS011;38940;50.096;4.012;2023-01-10T05:14:02;444.25;;;407.10;;
53056;SDS011;38940;50.096;4.012;2023-01-10T05:16:28;444.17;;;407.05;;
53056;SDS011;38940;50.096;4.012;2023-01-10T05:18:54;450.30;;;412.30;;
53056;SDS011;38940;50.096;4.012;2023-01-10T05:21:20;449.65;;;411.25;;
53056;SDS011;38940;50.096;4.012;2023-01-10T05:23:46;433.83;;;397.92;;
53056;SDS011;38940;50.096;4.012;2023-01-10T05:26:14;452.63;;;414.40;;
53056;SDS011;38940;50.096;4.012;2023-01-10T05:28:40;426.83;;;391.17;;
53056;SDS011;38940;50.096;4.012;2023-01-10T05:31:07;450.40;;;412.77;;
53056;SDS011;38940;50.096;4.012;2023-01-10T05:33:34;436.60;;;399.77;;
53056;SDS011;38940;50.096;4.012;2023-01-10T05:36:00;451.85;;;413.60;;
53056;SDS011;38940;50.096;4.012;2023-01-10T05:38:30;460.70;;;422.08;;
53056;SDS011;38940;50.096;4.012;2023-01-10T05:40:56;444.05;;;406.50;;
53056;SDS011;38940;50.096;4.012;2023-01-10T05:43:23;441.95;;;404.33;;
53056;SDS011;38940;50.096;4.012;2023-01-10T05:45:49;433.25;;;396.92;;
53056;SDS011;38940;50.096;4.012;2023-01-10T05:48:16;428.52;;;392.45;;
53056;SDS011;38940;50.096;4.012;2023-01-10T05:50:42;437.95;;;400.65;;
53056;SDS011;38940;50.096;4.012;2023-01-10T05:53:08;438.17;;;401.13;;
53056;SDS011;38940;50.096;4.012;2023-01-10T05:55:34;443.10;;;405.45;;
53056;SDS011;38940;50.096;4.012;2023-01-10T05:58:00;441.35;;;403.17;;
53056;SDS011;38940;50.096;4.012;2023-01-10T06:00:27;461.73;;;422.63;;
53056;SDS011;38940;50.096;4.012;2023-01-10T06:02:53;460.50;;;420.67;;
53056;SDS011;38940;50.096;4.012;2023-01-10T06:05:20;458.35;;;419.40;;
53056;SDS011;38940;50.096;4.012;2023-01-10T06:07:46;448.83;;;410.45;;
53056;SDS011;38940;50.096;4.012;2023-01-10T06:10:12;454.02;;;415.13;;
53056;SDS011;38940;50.096;4.012;2023-01-10T06:12:41;462.05;;;423.58;;
53056;SDS011;38940;50.096;4.012;2023-01-10T06:15:07;463.02;;;424.63;;
53056;SDS011;38940;50.096;4.012;2023-01-10T06:17:33;449.00;;;411.83;;
53056;SDS011;38940;50.096;4.012;2023-01-10T06:19:59;450.48;;;412.27;;
53056;SDS011;38940;50.096;4.012;2023-01-10T06:22:25;472.02;;;432.75;;
53056;SDS011;38940;50.096;4.012;2023-01-10T06:24:52;458.27;;;419.83;;
53056;SDS011;38940;50.096;4.012;2023-01-10T06:27:19;444.13;;;407.20;;
53056;SDS011;38940;50.096;4.012;2023-01-10T06:29:45;451.90;;;413.70;;
53056;SDS011;38940;50.096;4.012;2023-01-10T06:32:11;464.73;;;425.58;;
53056;SDS011;38940;50.096;4.012;2023-01-10T06:34:37;458.25;;;420.02;;
53056;SDS011;38940;50.096;4.012;2023-01-10T06:37:03;444.10;;;406.85;;
53056;SDS011;38940;50.096;4.012;2023-01-10T06:39:29;461.52;;;422.73;;
53056;SDS011;38940;50.096;4.012;2023-01-10T06:41:55;436.55;;;399.88;;
53056;SDS011;38940;50.096;4.012;2023-01-10T06:44:21;465.38;;;426.02;;
53056;SDS011;38940;50.096;4.012;2023-01-10T06:46:47;461.73;;;423.35;;
53056;SDS011;38940;50.096;4.012;2023-01-10T06:49:13;449.77;;;411.85;;
53056;SDS011;38940;50.096;4.012;2023-01-10T06:51:39;437.67;;;400.85;;
53056;SDS011;38940;50.096;4.012;2023-01-10T06:54:05;442.63;;;405.40;;
53056;SDS011;38940;50.096;4.012;2023-01-10T06:56:31;441.13;;;403.50;;
53056;SDS011;38940;50.096;4.012;2023-01-10T06:58:57;448.73;;;410.48;;
53056;SDS011;38940;50.096;4.012;2023-01-10T07:01:23;458.50;;;419.27;;
53056;SDS011;38940;50.096;4.012;2023-01-10T07:03:49;441.10;;;404.55;;
53056;SDS011;38940;50.096;4.012;2023-01-10T07:06:15;446.67;;;408.70;;
53056;SDS011;38940;50.096;4.012;2023-01-10T07:08:43;448.38;;;410.23;;
53056;SDS011;38940;50.096;4.012;2023-01-10T07:11:10;451.05;;;412.98;;
53056;SDS011;38940;50.096;4.012;2023-01-10T07:13:36;459.98;;;421.63;;
53056;SDS011;38940;50.096;4.012;2023-01-10T07:18:28;457.98;;;420.00;;
53056;SDS011;38940;50.096;4.012;2023-01-10T07:20:54;448.27;;;410.08;;
53056;SDS011;38940;50.096;4.012;2023-01-10T07:23:20;454.98;;;417.10;;
53056;SDS011;38940;50.096;4.012;2023-01-10T07:25:46;447.13;;;409.70;;
53056;SDS011;38940;50.096;4.012;2023-01-10T07:28:12;454.20;;;415.77;;
53056;SDS011;38940;50.096;4.012;2023-01-10T07:30:38;441.20;;;404.75;;
53056;SDS011;38940;50.096;4.012;2023-01-10T07:33:04;451.10;;;413.05;;
53056;SDS011;38940;50.096;4.012;2023-01-10T07:35:31;443.58;;;406.27;;
53056;SDS011;38940;50.096;4.012;2023-01-10T07:37:58;440.48;;;404.23;;
53056;SDS011;38940;50.096;4.012;2023-01-10T07:40:25;433.02;;;396.90;;
53056;SDS011;38940;50.096;4.012;2023-01-10T07:42:55;442.33;;;405.35;;
53056;SDS011;38940;50.096;4.012;2023-01-10T07:45:21;456.08;;;417.10;;
53056;SDS011;38940;50.096;4.012;2023-01-10T07:47:47;461.90;;;422.63;;
53056;SDS011;38940;50.096;4.012;2023-01-10T07:50:13;425.67;;;390.23;;
53056;SDS011;38940;50.096;4.012;2023-01-10T07:52:39;442.48;;;405.27;;
53056;SDS011;38940;50.096;4.012;2023-01-10T07:55:06;431.27;;;395.00;;
53056;SDS011;38940;50.096;4.012;2023-01-10T07:57:32;442.23;;;405.23;;
53056;SDS011;38940;50.096;4.012;2023-01-10T07:59:58;434.77;;;398.23;;
53056;SDS011;38940;50.096;4.012;2023-01-10T08:02:24;442.80;;;405.40;;
53056;SDS011;38940;50.096;4.012;2023-01-10T08:04:50;445.27;;;407.95;;
53056;SDS011;38940;50.096;4.012;2023-01-10T08:07:16;445.42;;;407.67;;
53056;SDS011;38940;50.096;4.012;2023-01-10T08:09:42;443.17;;;406.70;;
53056;SDS011;38940;50.096;4.012;2023-01-10T08:12:08;440.95;;;403.00;;
53056;SDS011;38940;50.096;4.012;2023-01-10T08:14:34;430.48;;;394.70;;
53056;SDS011;38940;50.096;4.012;2023-01-10T08:17:00;435.05;;;398.98;;
53056;SDS011;38940;50.096;4.012;2023-01-10T08:19:26;441.10;;;404.60;;
53056;SDS011;38940;50.096;4.012;2023-01-10T08:21:53;433.65;;;398.13;;
53056;SDS011;38940;50.096;4.012;2023-01-10T08:24:19;454.13;;;417.25;;
53056;SDS011;38940;50.096;4.012;2023-01-10T08:26:45;446.13;;;409.25;;
53056;SDS011;38940;50.096;4.012;2023-01-10T08:29:11;438.35;;;402.08;;
53056;SDS011;38940;50.096;4.012;2023-01-10T08:31:39;453.92;;;416.42;;
53056;SDS011;38940;50.096;4.012;2023-01-10T08:34:05;431.73;;;396.15;;
53056;SDS011;38940;50.096;4.012;2023-01-10T08:36:31;453.92;;;416.40;;
53056;SDS011;38940;50.096;4.012;2023-01-10T08:38:57;455.33;;;417.45;;
53056;SDS011;38940;50.096;4.012;2023-01-10T08:41:23;446.85;;;409.58;;
53056;SDS011;38940;50.096;4.012;2023-01-10T08:43:49;435.90;;;399.20;;
53056;SDS011;38940;50.096;4.012;2023-01-10T08:46:16;453.13;;;414.98;;
53056;SDS011;38940;50.096;4.012;2023-01-10T08:48:42;443.02;;;405.80;;
53056;SDS011;38940;50.096;4.012;2023-01-10T08:51:09;443.50;;;406.65;;
53056;SDS011;38940;50.096;4.012;2023-01-10T08:53:35;446.30;;;409.00;;
53056;SDS011;38940;50.096;4.012;2023-01-10T08:56:01;437.48;;;400.80;;
53056;SDS011;38940;50.096;4.012;2023-01-10T08:58:27;442.50;;;405.85;;
53056;SDS011;38940;50.096;4.012;2023-01-10T09:00:53;449.55;;;410.98;;
53056;SDS011;38940;50.096;4.012;2023-01-10T09:03:19;435.75;;;399.30;;
53056;SDS011;38940;50.096;4.012;2023-01-10T09:05:45;439.85;;;402.95;;
53056;SDS011;38940;50.096;4.012;2023-01-10T09:08:11;432.67;;;396.27;;
53056;SDS011;38940;50.096;4.012;2023-01-10T09:10:37;447.25;;;410.13;;
53056;SDS011;38940;50.096;4.012;2023-01-10T09:13:03;440.08;;;403.33;;
53056;SDS011;38940;50.096;4.012;2023-01-10T09:15:31;439.67;;;402.83;;
53056;SDS011;38940;50.096;4.012;2023-01-10T09:17:58;432.70;;;395.65;;
53056;SDS011;38940;50.096;4.012;2023-01-10T09:20:25;428.73;;;392.17;;
53056;SDS011;38940;50.096;4.012;2023-01-10T09:22:51;426.38;;;391.05;;
53056;SDS011;38940;50.096;4.012;2023-01-10T09:25:18;424.83;;;389.20;;
53056;SDS011;38940;50.096;4.012;2023-01-10T09:27:44;427.08;;;391.08;;
53056;SDS011;38940;50.096;4.012;2023-01-10T09:30:10;434.42;;;398.40;;
53056;SDS011;38940;50.096;4.012;2023-01-10T09:32:36;430.75;;;394.50;;
53056;SDS011;38940;50.096;4.012;2023-01-10T09:35:02;436.23;;;399.98;;
53056;SDS011;38940;50.096;4.012;2023-01-10T09:37:28;425.60;;;390.02;;
53056;SDS011;38940;50.096;4.012;2023-01-10T09:39:57;424.38;;;388.55;;
53056;SDS011;38940;50.096;4.012;2023-01-10T09:47:42;439.63;;;402.80;;
53056;SDS011;38940;50.096;4.012;2023-01-10T09:52:41;449.48;;;412.13;;
53056;SDS011;38940;50.096;4.012;2023-01-10T09:55:16;434.08;;;398.20;;
53056;SDS011;38940;50.096;4.012;2023-01-10T09:57:43;429.70;;;394.20;;
53056;SDS011;38940;50.096;4.012;2023-01-10T10:00:14;435.58;;;398.90;;
53056;SDS011;38940;50.096;4.012;2023-01-10T10:02:41;428.88;;;392.88;;
53056;SDS011;38940;50.096;4.012;2023-01-10T10:05:14;432.23;;;395.95;;
53056;SDS011;38940;50.096;4.012;2023-01-10T10:07:42;415.23;;;380.63;;
53056;SDS011;38940;50.096;4.012;2023-01-10T10:10:15;446.58;;;407.95;;
53056;SDS011;38940;50.096;4.012;2023-01-10T10:12:54;438.13;;;400.63;;
53056;SDS011;38940;50.096;4.012;2023-01-10T10:30:30;421.57;;;386.90;;
53056;SDS011;38940;50.096;4.012;2023-01-10T10:35:54;436.05;;;400.77;;
53056;SDS011;38940;50.096;4.012;2023-01-10T10:38:24;434.65;;;398.17;;
53056;SDS011;38940;50.096;4.012;2023-01-10T10:40:53;435.63;;;399.50;;
53056;SDS011;38940;50.096;4.012;2023-01-10T10:43:21;417.45;;;382.08;;
53056;SDS011;38940;50.096;4.012;2023-01-10T10:45:56;434.73;;;399.08;;
53056;SDS011;38940;50.096;4.012;2023-01-10T10:53:15;416.67;;;382.30;;
53056;SDS011;38940;50.096;4.012;2023-01-10T10:55:43;421.52;;;386.60;;
53056;SDS011;38940;50.096;4.012;2023-01-10T10:58:09;413.95;;;378.83;;
53056;SDS011;38940;50.096;4.012;2023-01-10T11:00:36;435.55;;;399.77;;
53056;SDS011;38940;50.096;4.012;2023-01-10T11:03:03;414.58;;;379.73;;
53056;SDS011;38940;50.096;4.012;2023-01-10T11:05:36;433.00;;;396.25;;
53056;SDS011;38940;50.096;4.012;2023-01-10T11:08:04;422.63;;;386.40;;
53056;SDS011;38940;50.096;4.012;2023-01-10T11:10:41;422.13;;;386.58;;
53056;SDS011;38940;50.096;4.012;2023-01-10T11:15:43;408.23;;;373.70;;
53056;SDS011;38940;50.096;4.012;2023-01-10T11:18:14;410.35;;;375.58;;
53056;SDS011;38940;50.096;4.012;2023-01-10T11:20:53;427.30;;;391.67;;
53056;SDS011;38940;50.096;4.012;2023-01-10T11:24:12;415.35;;;380.88;;
53056;SDS011;38940;50.096;4.012;2023-01-10T11:28:50;403.52;;;370.05;;
53056;SDS011;38940;50.096;4.012;2023-01-10T11:31:27;421.73;;;387.45;;
53056;SDS011;38940;50.096;4.012;2023-01-10T11:33:53;404.65;;;371.10;;
53056;SDS011;38940;50.096;4.012;2023-01-10T11:36:19;436.92;;;401.58;;
53056;SDS011;38940;50.096;4.012;2023-01-10T11:38:57;407.80;;;373.92;;
53056;SDS011;38940;50.096;4.012;2023-01-10T11:41:24;426.50;;;391.58;;
53056;SDS011;38940;50.096;4.012;2023-01-10T11:43:55;416.42;;;382.65;;
53056;SDS011;38940;50.096;4.012;2023-01-10T11:46:41;411.35;;;377.70;;
53056;SDS011;38940;50.096;4.012;2023-01-10T11:49:09;425.58;;;390.70;;
53056;SDS011;38940;50.096;4.012;2023-01-10T11:51:39;420.70;;;386.23;;
53056;SDS011;38940;50.096;4.012;2023-01-10T11:54:15;412.00;;;378.23;;
53056;SDS011;38940;50.096;4.012;2023-01-10T11:56:42;417.50;;;382.38;;
53056;SDS011;38940;50.096;4.012;2023-01-10T11:59:14;395.08;;;363.30;;
53056;SDS011;38940;50.096;4.012;2023-01-10T12:01:42;410.90;;;377.95;;
53056;SDS011;38940;50.096;4.012;2023-01-10T12:04:15;413.92;;;380.15;;
53056;SDS011;38940;50.096;4.012;2023-01-10T12:09:29;381.73;;;351.00;;
53056;SDS011;38940;50.096;4.012;2023-01-10T12:12:00;390.48;;;358.65;;
53056;SDS011;38940;50.096;4.012;2023-01-10T12:14:26;399.17;;;367.30;;
53056;SDS011;38940;50.096;4.012;2023-01-10T12:16:59;392.42;;;360.63;;
53056;SDS011;38940;50.096;4.012;2023-01-10T12:19:25;402.55;;;370.15;;
53056;SDS011;38940;50.096;4.012;2023-01-10T12:21:53;409.75;;;377.15;;
53056;SDS011;38940;50.096;4.012;2023-01-10T12:24:21;403.70;;;370.67;;
53056;SDS011;38940;50.096;4.012;2023-01-10T12:26:49;391.15;;;359.20;;
53056;SDS011;38940;50.096;4.012;2023-01-10T12:29:18;406.02;;;373.60;;
53056;SDS011;38940;50.096;4.012;2023-01-10T12:31:46;403.38;;;370.85;;
53056;SDS011;38940;50.096;4.012;2023-01-10T12:34:15;399.73;;;367.25;;
53056;SDS011;38940;50.096;4.012;2023-01-10T12:39:12;404.90;;;372.40;;
53056;SDS011;38940;50.096;4.012;2023-01-10T12:47:11;397.55;;;365.70;;
53056;SDS011;38940;50.096;4.012;2023-01-10T12:52:17;401.30;;;369.13;;
53056;SDS011;38940;50.096;4.012;2023-01-10T12:54:45;424.67;;;391.00;;
53056;SDS011;38940;50.096;4.012;2023-01-10T12:57:31;405.83;;;373.77;;
53056;SDS011;38940;50.096;4.012;2023-01-10T13:00:02;401.13;;;369.55;;
53056;SDS011;38940;50.096;4.012;2023-01-10T13:02:36;421.45;;;388.90;;
53056;SDS011;38940;50.096;4.012;2023-01-10T13:05:03;402.50;;;370.27;;
53056;SDS011;38940;50.096;4.012;2023-01-10T13:07:31;395.55;;;363.92;;
53056;SDS011;38940;50.096;4.012;2023-01-10T13:09:58;402.08;;;370.25;;
53056;SDS011;38940;50.096;4.012;2023-01-10T13:12:31;416.95;;;384.08;;
53056;SDS011;38940;50.096;4.012;2023-01-10T13:15:16;410.25;;;377.40;;
53056;SDS011;38940;50.096;4.012;2023-01-10T13:17:50;421.70;;;388.63;;
53056;SDS011;38940;50.096;4.012;2023-01-10T13:20:24;420.33;;;386.98;;
53056;SDS011;38940;50.096;4.012;2023-01-10T13:22:51;410.83;;;378.75;;
53056;SDS011;38940;50.096;4.012;2023-01-10T13:25:30;418.13;;;385.20;;
53056;SDS011;38940;50.096;4.012;2023-01-10T13:28:13;403.27;;;371.60;;
53056;SDS011;38940;50.096;4.012;2023-01-10T13:30:40;393.17;;;362.00;;
53056;SDS011;38940;50.096;4.012;2023-01-10T13:33:07;414.67;;;382.55;;
53056;SDS011;38940;50.096;4.012;2023-01-10T13:35:41;421.83;;;388.63;;
53056;SDS011;38940;50.096;4.012;2023-01-10T13:38:25;402.98;;;371.77;;
53056;SDS011;38940;50.096;4.012;2023-01-10T13:41:00;397.08;;;365.92;;
53056;SDS011;38940;50.096;4.012;2023-01-10T13:48:40;390.23;;;358.98;;
53056;SDS011;38940;50.096;4.012;2023-01-10T13:51:12;403.10;;;371.52;;
53056;SDS011;38940;50.096;4.012;2023-01-10T13:56:26;412.67;;;380.27;;
53056;SDS011;38940;50.096;4.012;2023-01-10T13:58:50;409.13;;;377.00;;
53056;SDS011;38940;50.096;4.012;2023-01-10T14:01:35;404.45;;;372.45;;
53056;SDS011;38940;50.096;4.012;2023-01-10T14:04:35;407.58;;;375.63;;
53056;SDS011;38940;50.096;4.012;2023-01-10T14:07:03;396.73;;;365.30;;
53056;SDS011;38940;50.096;4.012;2023-01-10T14:09:34;414.98;;;382.60;;
53056;SDS011;38940;50.096;4.012;2023-01-10T14:12:02;413.77;;;381.33;;
53056;SDS011;38940;50.096;4.012;2023-01-10T14:14:33;417.48;;;384.60;;
53056;SDS011;38940;50.096;4.012;2023-01-10T14:17:21;376.13;;;346.88;;
53056;SDS011;38940;50.096;4.012;2023-01-10T14:19:48;404.92;;;373.30;;
53056;SDS011;38940;50.096;4.012;2023-01-10T14:22:26;399.00;;;368.15;;
53056;SDS011;38940;50.096;4.012;2023-01-10T14:24:55;393.27;;;362.73;;
53056;SDS011;38940;50.096;4.012;2023-01-10T14:27:22;393.92;;;363.17;;
53056;SDS011;38940;50.096;4.012;2023-01-10T14:29:58;411.52;;;378.95;;
53056;SDS011;38940;50.096;4.012;2023-01-10T14:34:56;389.57;;;359.13;;
53056;SDS011;38940;50.096;4.012;2023-01-10T14:37:25;413.27;;;380.98;;
53056;SDS011;38940;50.096;4.012;2023-01-10T14:39:52;389.00;;;358.80;;
53056;SDS011;38940;50.096;4.012;2023-01-10T14:42:20;416.83;;;384.45;;
53056;SDS011;38940;50.096;4.012;2023-01-10T14:44:50;409.20;;;377.48;;
53056;SDS011;38940;50.096;4.012;2023-01-10T14:49:54;411.73;;;379.58;;
53056;SDS011;38940;50.096;4.012;2023-01-10T14:52:40;403.02;;;371.85;;
53056;SDS011;38940;50.096;4.012;2023-01-10T14:57:32;408.83;;;377.15;;
53056;SDS011;38940;50.096;4.012;2023-01-10T15:00:04;408.52;;;377.02;;
53056;SDS011;38940;50.096;4.012;2023-01-10T15:02:30;413.90;;;381.27;;
53056;SDS011;38940;50.096;4.012;2023-01-10T15:05:01;414.98;;;382.27;;
53056;SDS011;38940;50.096;4.012;2023-01-10T15:07:31;410.27;;;378.10;;
53056;SDS011;38940;50.096;4.012;2023-01-10T15:09:58;398.35;;;367.95;;
53056;SDS011;38940;50.096;4.012;2023-01-10T15:12:26;393.58;;;363.42;;
53056;SDS011;38940;50.096;4.012;2023-01-10T15:14:57;417.80;;;385.73;;
53056;SDS011;38940;50.096;4.012;2023-01-10T15:17:25;414.02;;;382.10;;
53056;SDS011;38940;50.096;4.012;2023-01-10T15:19:51;404.25;;;372.90;;
53056;SDS011;38940;50.096;4.012;2023-01-10T15:22:31;413.80;;;381.42;;
53056;SDS011;38940;50.096;4.012;2023-01-10T15:25:02;410.30;;;378.90;;
53056;SDS011;38940;50.096;4.012;2023-01-10T15:27:29;406.48;;;375.13;;
53056;SDS011;38940;50.096;4.012;2023-01-10T15:29:55;396.30;;;365.60;;
53056;SDS011;38940;50.096;4.012;2023-01-10T15:32:32;418.83;;;387.10;;
53056;SDS011;38940;50.096;4.012;2023-01-10T15:34:59;412.90;;;380.75;;
53056;SDS011;38940;50.096;4.012;2023-01-10T15:37:30;395.85;;;365.13;;
53056;SDS011;38940;50.096;4.012;2023-01-10T15:40:01;389.50;;;359.35;;
53056;SDS011;38940;50.096;4.012;2023-01-10T15:42:28;407.92;;;376.58;;
53056;SDS011;38940;50.096;4.012;2023-01-10T15:44:55;402.88;;;371.60;;
53056;SDS011;38940;50.096;4.012;2023-01-10T15:53:00;407.88;;;376.55;;
53056;SDS011;38940;50.096;4.012;2023-01-10T15:55:36;396.02;;;364.98;;
53056;SDS011;38940;50.096;4.012;2023-01-10T16:01:29;391.67;;;361.80;;
53056;SDS011;38940;50.096;4.012;2023-01-10T16:03:56;417.17;;;384.80;;
53056;SDS011;38940;50.096;4.012;2023-01-10T16:06:43;405.40;;;374.38;;
53056;SDS011;38940;50.096;4.012;2023-01-10T16:09:30;407.00;;;375.55;;
53056;SDS011;38940;50.096;4.012;2023-01-10T16:11:56;423.15;;;390.08;;
53056;SDS011;38940;50.096;4.012;2023-01-10T16:14:40;431.65;;;397.50;;
53056;SDS011;38940;50.096;4.012;2023-01-10T16:17:06;421.50;;;388.88;;